createdAt,value
2023-01-27T00:02:24.018Z,10.82
2023-01-27T00:05:26.352Z,11.95
2023-01-27T00:11:25.634Z,12.45
2023-01-27T00:14:00.726Z,9.18
2023-01-27T00:16:45.182Z,13.07
2023-01-27T00:19:22.049Z,13.35
2023-01-27T00:22:12.530Z,10.73
2023-01-27T00:24:43.827Z,5.10
2023-01-27T00:27:18.847Z,9.40
2023-01-27T00:29:56.057Z,13.43
2023-01-27T00:32:45.200Z,8.25
2023-01-27T00:35:19.262Z,12.52
2023-01-27T00:37:55.300Z,12.30
2023-01-27T00:40:25.284Z,11.40
2023-01-27T00:42:53.300Z,10.70
2023-01-27T00:45:42.139Z,8.40
2023-01-27T00:48:20.489Z,13.20
2023-01-27T00:50:50.845Z,15.02
2023-01-27T00:53:21.005Z,8.90
2023-01-27T00:55:56.775Z,13.10
2023-01-27T00:58:41.643Z,9.90
2023-01-27T01:01:17.557Z,19.42
2023-01-27T01:03:51.292Z,13.70
2023-01-27T01:06:38.191Z,18.63
2023-01-27T01:09:19.539Z,10.93
2023-01-27T01:11:51.403Z,11.55
2023-01-27T01:14:24.106Z,13.55
2023-01-27T01:16:59.545Z,7.68
2023-01-27T01:22:53.791Z,8.05
2023-01-27T01:25:50.173Z,16.08
2023-01-27T01:28:30.483Z,18.83
2023-01-27T01:31:14.532Z,12.73
2023-01-27T01:33:48.049Z,15.63
2023-01-27T01:36:26.413Z,14.90
2023-01-27T01:39:12.212Z,12.43
2023-01-27T01:42:28.897Z,17.50
2023-01-27T01:45:52.841Z,15.15
2023-01-27T01:52:01.911Z,17.85
2023-01-27T01:54:53.650Z,16.30
2023-01-27T01:57:39.992Z,18.05
2023-01-27T02:00:20.947Z,16.65
2023-01-27T02:03:17.915Z,18.92
2023-01-27T02:09:12.600Z,19.88
2023-01-27T02:11:50.963Z,17.58
2023-01-27T02:14:36.710Z,21.73
2023-01-27T02:17:07.890Z,19.60
2023-01-27T02:20:09.263Z,16.75
2023-01-27T02:23:07.535Z,17.63
2023-01-27T02:26:03.870Z,22.67
2023-01-27T02:28:34.517Z,21.00
2023-01-27T02:31:10.865Z,17.92
2023-01-27T02:33:40.419Z,20.58
2023-01-27T02:36:20.349Z,18.30
2023-01-27T02:38:55.826Z,22.80
2023-01-27T02:41:55.963Z,19.48
2023-01-27T02:44:35.104Z,19.23
2023-01-27T02:47:05.107Z,25.23
2023-01-27T02:49:32.851Z,19.63
2023-01-27T02:52:11.793Z,17.35
2023-01-27T02:54:42.929Z,19.85
2023-01-27T02:57:14.603Z,20.30
2023-01-27T02:59:55.833Z,23.52
2023-01-27T03:02:30.787Z,22.65
2023-01-27T03:04:59.565Z,26.25
2023-01-27T03:07:31.717Z,26.73
2023-01-27T03:10:07.883Z,19.58
2023-01-27T03:12:51.983Z,18.67
2023-01-27T03:15:40.409Z,23.13
2023-01-27T03:21:28.289Z,18.38
2023-01-27T03:27:09.767Z,17.70
2023-01-27T03:30:18.739Z,15.32
2023-01-27T03:36:45.369Z,15.23
2023-01-27T03:39:35.715Z,15.13
2023-01-27T03:45:32.215Z,14.20
2023-01-27T03:50:58.789Z,13.07
2023-01-27T03:53:34.427Z,12.90
2023-01-27T03:56:08.077Z,18.43
2023-01-27T03:59:12.015Z,12.95
2023-01-27T04:01:53.759Z,11.27
2023-01-27T04:04:55.232Z,10.73
2023-01-27T04:10:42.002Z,10.02
2023-01-27T04:13:13.342Z,10.82
2023-01-27T04:15:51.396Z,7.97
2023-01-27T04:21:23.543Z,11.00
2023-01-27T04:24:02.860Z,10.30
2023-01-27T04:32:33.206Z,8.55
2023-01-27T04:35:13.495Z,9.77
2023-01-27T04:37:43.861Z,9.07
2023-01-27T04:40:21.996Z,7.70
2023-01-27T04:42:58.352Z,5.05
2023-01-27T04:45:27.359Z,6.28
2023-01-27T04:48:05.326Z,8.70
2023-01-27T04:50:41.530Z,6.20
2023-01-27T04:53:11.041Z,10.45
2023-01-27T04:55:47.105Z,6.57
2023-01-27T04:58:34.775Z,6.90
2023-01-27T05:01:18.603Z,6.63
2023-01-27T05:04:10.137Z,9.52
2023-01-27T05:12:34.676Z,9.00
2023-01-27T05:15:27.109Z,6.25
2023-01-27T05:17:59.651Z,7.03
2023-01-27T05:20:35.300Z,7.38
2023-01-27T05:23:25.834Z,11.50
2023-01-27T05:25:53.032Z,7.53
2023-01-27T05:28:26.524Z,7.47
2023-01-27T05:31:11.909Z,9.77
2023-01-27T05:33:43.879Z,9.30
2023-01-27T05:36:19.402Z,9.35
2023-01-27T05:39:06.561Z,7.90
2023-01-27T05:42:02.470Z,4.93
2023-01-27T05:44:32.134Z,9.27
2023-01-27T05:47:05.706Z,4.60
2023-01-27T05:49:41.504Z,6.25
2023-01-27T05:52:16.905Z,5.30
2023-01-27T05:54:52.935Z,7.15
2023-01-27T05:57:26.035Z,5.18
2023-01-27T05:59:58.674Z,6.50
2023-01-27T06:02:33.494Z,7.35
2023-01-27T06:05:16.342Z,6.45
2023-01-27T06:07:47.941Z,8.32
2023-01-27T06:10:18.298Z,4.82
2023-01-27T06:12:58.330Z,5.00
2023-01-27T06:15:30.880Z,7.55
2023-01-27T06:18:18.886Z,6.10
2023-01-27T06:20:54.285Z,5.07
2023-01-27T06:23:35.883Z,4.30
2023-01-27T06:26:16.819Z,5.70
2023-01-27T06:28:46.584Z,5.50
2023-01-27T06:34:05.189Z,5.63
2023-01-27T06:36:41.396Z,11.23
2023-01-27T06:39:13.925Z,6.28
2023-01-27T06:41:50.347Z,6.50
2023-01-27T06:44:26.824Z,5.40
2023-01-27T06:46:58.514Z,5.25
2023-01-27T06:49:30.943Z,9.18
2023-01-27T06:52:03.312Z,5.27
2023-01-27T06:54:37.356Z,6.50
2023-01-27T06:57:15.955Z,4.68
2023-01-27T06:59:49.072Z,4.95
2023-01-27T07:02:29.683Z,4.95
2023-01-27T07:05:02.759Z,4.03
2023-01-27T07:07:44.845Z,5.22
2023-01-27T07:13:41.125Z,3.38
2023-01-27T07:16:22.143Z,3.87
2023-01-27T07:19:14.392Z,3.80
2023-01-27T07:21:54.784Z,3.40
2023-01-27T07:24:33.117Z,3.22
2023-01-27T07:30:00.753Z,8.63
2023-01-27T07:32:38.402Z,2.65
2023-01-27T07:35:16.191Z,4.53
2023-01-27T07:38:21.400Z,6.07
2023-01-27T07:41:42.624Z,5.00
2023-01-27T07:53:44.292Z,5.47
2023-01-27T07:56:16.144Z,11.95
2023-01-27T07:58:50.852Z,4.60
2023-01-27T08:05:11.553Z,2.75
2023-01-27T08:08:16.741Z,5.55
2023-01-27T08:11:10.094Z,5.63
2023-01-27T08:14:10.416Z,3.53
2023-01-27T08:16:40.631Z,3.83
2023-01-27T08:19:43.056Z,4.40
2023-01-27T08:22:20.970Z,4.05
2023-01-27T08:25:02.305Z,3.10
2023-01-27T08:36:49.061Z,2.90
2023-01-27T08:40:01.400Z,3.58
2023-01-27T08:42:47.176Z,5.40
2023-01-27T08:57:13.103Z,3.33
2023-01-27T09:00:31.702Z,2.78
2023-01-27T09:03:03.783Z,4.25
2023-01-27T09:05:45.259Z,3.63
2023-01-27T09:08:21.929Z,4.05
2023-01-27T09:10:59.004Z,7.47
2023-01-27T09:13:39.450Z,4.00
2023-01-27T09:16:17.756Z,5.25
2023-01-27T09:21:32.903Z,4.85
2023-01-27T09:24:27.890Z,6.80
2023-01-27T09:30:00.851Z,4.95
2023-01-27T09:32:32.745Z,4.72
2023-01-27T09:38:06.597Z,7.38
2023-01-27T09:41:29.232Z,6.65
2023-01-27T09:44:45.988Z,5.10
2023-01-27T09:47:36.723Z,7.63
2023-01-27T09:50:47.109Z,6.85
2023-01-27T09:54:32.530Z,6.07
2023-01-27T09:57:44.039Z,5.03
2023-01-27T10:00:51.306Z,4.90
2023-01-27T10:03:57.196Z,8.85
2023-01-27T10:07:35.133Z,6.65
2023-01-27T10:11:36.854Z,7.15
2023-01-27T10:21:49.800Z,5.93
2023-01-27T10:24:53.231Z,7.22
2023-01-27T10:28:13.949Z,5.25
2023-01-27T10:31:43.040Z,6.47
2023-01-27T10:34:42.377Z,6.60
2023-01-27T10:38:17.961Z,4.70
2023-01-27T10:41:25.482Z,4.85
2023-01-27T10:44:59.683Z,5.07
2023-01-27T10:48:16.441Z,4.43
2023-01-27T10:52:05.676Z,3.65
2023-01-27T10:55:23.445Z,4.32
2023-01-27T10:58:27.509Z,7.28
2023-01-27T11:14:38.915Z,2.95
2023-01-27T11:23:50.086Z,3.63
2023-01-27T11:27:27.582Z,4.75
2023-01-27T11:30:28.654Z,5.10
2023-01-27T11:33:50.326Z,6.05
2023-01-27T12:05:39.042Z,6.47
2023-01-27T12:18:21.756Z,6.60
2023-01-27T12:58:46.159Z,4.47
2023-01-27T13:02:14.714Z,4.30
2023-01-27T13:07:54.351Z,6.65
2023-01-27T13:10:38.366Z,5.22
2023-01-27T13:16:40.451Z,6.15
2023-01-27T13:19:25.175Z,3.97
2023-01-27T13:21:58.245Z,5.10
2023-01-27T13:24:55.844Z,5.10
2023-01-27T13:27:29.992Z,4.55
2023-01-27T13:30:36.990Z,4.45
2023-01-27T13:34:01.814Z,6.40
2023-01-27T13:40:50.091Z,5.15
2023-01-27T14:39:20.006Z,4.97
2023-01-27T14:47:37.529Z,7.80
2023-01-27T14:50:59.407Z,6.07
2023-01-27T14:54:20.589Z,5.47
2023-01-27T14:57:29.277Z,4.95
2023-01-27T15:00:23.275Z,6.30
2023-01-27T15:04:07.717Z,5.38
2023-01-27T15:06:59.031Z,4.38
2023-01-27T15:10:26.019Z,6.05
2023-01-27T15:13:52.738Z,4.30
2023-01-27T15:17:19.643Z,4.32
2023-01-27T15:26:50.424Z,5.43
2023-01-27T15:29:32.491Z,5.18
2023-01-27T15:32:33.288Z,4.82
2023-01-27T15:35:43.977Z,4.10
2023-01-27T15:38:34.372Z,4.15
2023-01-27T15:44:24.790Z,4.82
2023-01-27T15:50:44.626Z,3.85
2023-01-27T15:53:36.547Z,5.20
2023-01-27T15:56:06.318Z,9.05
2023-01-27T15:59:07.863Z,5.20
2023-01-27T16:01:37.948Z,4.15
2023-01-27T16:04:13.017Z,3.88
2023-01-27T16:07:50.295Z,3.63
2023-01-27T16:10:30.778Z,4.68
2023-01-27T16:14:19.248Z,4.00
2023-01-27T16:17:23.841Z,4.30
2023-01-27T16:20:31.575Z,4.25
2023-01-27T16:23:14.423Z,4.35
2023-01-27T16:26:31.497Z,3.20
2023-01-27T16:36:35.400Z,4.47
2023-01-27T16:39:55.254Z,4.53
2023-01-27T16:43:11.057Z,7.05
2023-01-27T16:45:47.531Z,4.63
2023-01-27T16:48:25.878Z,6.43
2023-01-27T16:51:07.296Z,3.40
2023-01-27T16:54:16.127Z,5.03
2023-01-27T16:57:01.419Z,3.50
2023-01-27T16:59:38.414Z,4.03
2023-01-27T17:02:40.231Z,3.60
2023-01-27T17:05:21.255Z,4.03
2023-01-27T18:01:43.314Z,3.78
2023-01-27T18:04:24.703Z,4.78
2023-01-27T18:07:15.631Z,4.35
2023-01-27T19:02:23.537Z,8.30
2023-01-27T19:07:37.300Z,6.68
2023-01-27T19:10:24.732Z,6.90
2023-01-27T19:13:04.289Z,8.75
2023-01-27T19:15:44.683Z,5.80
2023-01-27T19:18:26.275Z,5.90
2023-01-27T19:20:57.768Z,6.53
2023-01-27T19:26:30.507Z,6.25
2023-01-27T19:29:24.672Z,9.05
2023-01-27T19:32:47.921Z,6.65
2023-01-27T19:50:09.270Z,6.13
2023-01-27T19:52:58.471Z,7.47
2023-01-27T19:55:30.568Z,6.88
2023-01-27T19:58:13.005Z,6.07
2023-01-27T20:23:28.319Z,5.57
2023-01-27T20:26:03.314Z,6.57
2023-01-27T20:29:26.180Z,5.60
2023-01-27T20:32:00.226Z,6.57
2023-01-27T20:37:02.389Z,6.53
2023-01-27T20:39:32.217Z,5.13
2023-01-27T20:45:08.675Z,5.88
2023-01-27T20:48:01.730Z,5.30
2023-01-27T20:50:31.467Z,7.15
2023-01-27T20:53:11.373Z,5.72
2023-01-27T20:55:54.288Z,6.18
2023-01-27T20:58:29.983Z,6.13
2023-01-27T21:01:11.698Z,5.90
2023-01-27T21:03:48.873Z,4.45
2023-01-27T21:06:28.527Z,5.28
2023-01-27T21:08:58.289Z,5.35
2023-01-27T21:11:42.306Z,4.95
2023-01-27T21:14:13.898Z,4.88
2023-01-27T21:16:45.370Z,4.70
2023-01-27T21:19:34.932Z,6.28
2023-01-27T21:22:09.692Z,6.10
2023-01-27T21:27:37.978Z,6.33
2023-01-27T21:30:16.796Z,7.45
2023-01-27T21:32:54.758Z,5.82
2023-01-27T21:35:25.284Z,6.18
2023-01-27T21:37:55.133Z,9.18
2023-01-27T21:40:28.243Z,7.10
2023-01-27T21:43:45.812Z,8.25
2023-01-27T21:46:30.672Z,8.02
2023-01-27T21:51:35.254Z,6.28
2023-01-27T21:54:16.550Z,7.50
2023-01-27T21:56:50.265Z,9.48
2023-01-27T21:59:21.639Z,8.20
2023-01-27T22:01:49.176Z,9.18
2023-01-27T22:07:32.139Z,8.40
2023-01-27T22:10:03.158Z,9.02
2023-01-27T22:12:31.422Z,8.02
2023-01-27T22:17:45.934Z,8.48
2023-01-27T22:20:21.154Z,10.18
2023-01-27T22:23:04.744Z,8.68
2023-01-27T22:28:03.405Z,8.30
2023-01-27T22:30:53.387Z,9.52
2023-01-27T22:33:21.522Z,9.43
2023-01-27T22:35:49.893Z,8.95
2023-01-27T22:41:53.049Z,8.98
2023-01-27T22:44:33.503Z,9.25
2023-01-27T22:47:04.279Z,7.85
2023-01-27T22:49:37.941Z,10.77
2023-01-27T22:52:08.290Z,9.65
2023-01-27T22:54:40.464Z,8.45
2023-01-27T22:57:11.582Z,8.82
2023-01-27T22:59:43.149Z,9.75
2023-01-27T23:02:13.277Z,8.25
2023-01-27T23:04:44.129Z,10.18
2023-01-27T23:07:25.947Z,9.07
2023-01-27T23:10:06.750Z,11.60
2023-01-27T23:12:34.383Z,10.60
2023-01-27T23:15:08.694Z,8.75
2023-01-27T23:17:38.267Z,8.75
2023-01-27T23:20:10.512Z,7.05
2023-01-27T23:22:42.688Z,8.13
2023-01-27T23:25:15.076Z,8.55
2023-01-27T23:28:03.499Z,9.13
2023-01-27T23:30:33.617Z,8.88
2023-01-27T23:33:07.736Z,8.20
2023-01-27T23:36:09.870Z,8.88
2023-01-27T23:38:46.050Z,8.48
2023-01-27T23:41:20.509Z,8.63
2023-01-27T23:43:59.360Z,9.50
2023-01-27T23:46:34.943Z,7.97
2023-01-27T23:49:08.316Z,7.65
2023-01-27T23:51:39.626Z,9.65
2023-01-27T23:54:12.357Z,7.15
2023-01-27T23:56:44.392Z,8.20
2023-01-27T23:59:21.653Z,8.65
